To NAV CANADA Home Page Login to a new session Search on AWWS site Feedback and Comments Disclaimer Vers la page française équivalente Tips FAQ What's new on the site To the Forecasts and Observations / NOTAM section To "File a Flight Plan" website Publications and other links Update of the User's profile FIC Telephone Numbers My Weather Data Folder Route Weather Data Regional Weather Data Local Weather Data To the Forecasts and Observations / NOTAM section
Request Generated 03/28/2015 at 03:56:46 UTC . Weather information available at that time is displayed.

METAR/TAF

LLOYDMINSTER/AB    (show WxCam)

METAR CYLL 280300Z 13008KT 15SM SCT250 03/01 A2973 RMK CI4 SLP092=
METAR CYLL 280200Z 14008KT 15SM FEW090 SCT250 05/02 A2975 RMK AC1CI2
WND U/S DUE OWL ON WND TWR WND ESTD SLP101=
METAR CYLL 280100Z 14007KT 15SM FEW090 SCT250 07/02 A2978 RMK AC1CI3
SLP108=

TAF CYLL 272338Z 2800/2812 18012KT P6SM FEW090 BKN250
FM280300 15012KT P6SM SCT220 TEMPO 2803/2806 3SM BR
FM280600 16012KT P6SM FEW006 TEMPO 2806/2809 2SM BR BKN006 PROB30
2806/2809 1/2SM FZFG VV002
FM280900 20012G22KT P6SM FEW160 SCT220
BECMG 2810/2812 26012G22KT
RMK NXT FCST BY 280600Z=
Your time UTC time
Weather data provided by Environment Canada and NAV CANADA